CYPW

Powell River Airport

Powell River, , Canada
METAR CYPW 210200Z 29014KT 240V310 25SM FEW038 FEW170 BKN230 19/10 A3013 RMK CU1AC1CI6 CU TR CONTRAILS LAST STFD OBS NEXT OBS 211300 UTC SLP204 DENSITY ALT 800FT
Observed Flight Rules
Jul-21 @ 02:00 UTC (2 hours ago) Visual Flight Rules
Wind Visibility Clouds
290° at 14 knots 25 miles
  • Few at 3,800' AGL
  • Few at 17,000' AGL
  • Broken at 23,000' AGL
Temperatures Readings
Current 19°C / 66°F
Dewpoint 10°C / 50°F
Humidity 56%
Altimeter 30.13" Hg
Pressure 1020.4 hPa
Elevation 130
METAR CYPW 210200Z 29014KT 240V310 25SM FEW038 FEW170 BKN230 19/10 A3013 RMK CU1AC1CI6 CU TR CONTRAILS LAST STFD OBS NEXT OBS 211300 UTC SLP204 DENSITY ALT 800FT
Observed Flight Rules
Jul-21 @ 02:00 UTC
(2 hours ago)
VFR
Wind Visibility
290° at 14 knots 25 miles
Clouds
  • Few at 3,800' AGL
  • Few at 17,000' AGL
  • Broken at 23,000' AGL
Temperature Dewpoint
19°C / 66°F 10°C / 50°F
Humidity Altimeter Pressure
56% 30.13" Hg 1020.4 hPa